createdAt,value
2023-05-08T00:00:05.177Z,2.40
2023-05-08T00:02:56.062Z,2.90
2023-05-08T00:05:27.164Z,2.50
2023-05-08T00:08:01.428Z,3.10
2023-05-08T00:10:32.632Z,2.80
2023-05-08T00:13:03.421Z,3.70
2023-05-08T00:15:34.267Z,3.10
2023-05-08T00:18:05.734Z,2.80
2023-05-08T00:20:36.839Z,2.40
2023-05-08T00:23:07.467Z,2.60
2023-05-08T00:25:38.167Z,3.10
2023-05-08T00:28:08.815Z,2.20
2023-05-08T00:30:39.508Z,2.60
2023-05-08T00:33:11.668Z,3.00
2023-05-08T00:35:43.019Z,2.50
2023-05-08T00:38:13.668Z,2.90
2023-05-08T00:40:44.434Z,3.00
2023-05-08T00:43:15.112Z,2.90
2023-05-08T00:45:46.978Z,3.40
2023-05-08T00:48:18.196Z,2.40
2023-05-08T00:50:49.316Z,2.70
2023-05-08T00:53:20.687Z,3.70
2023-05-08T00:55:52.524Z,2.90
2023-05-08T00:58:24.713Z,2.70
2023-05-08T01:00:56.967Z,2.60
2023-05-08T01:03:29.198Z,3.10
2023-05-08T01:06:00.715Z,2.30
2023-05-08T01:08:31.727Z,3.00
2023-05-08T01:11:09.232Z,2.80
2023-05-08T01:13:51.107Z,2.80
2023-05-08T01:16:30.506Z,2.80
2023-05-08T01:19:10.385Z,3.40
2023-05-08T01:21:48.156Z,2.90
2023-05-08T01:24:54.871Z,2.30
2023-05-08T01:27:49.459Z,2.70
2023-05-08T01:30:41.385Z,2.30
2023-05-08T01:33:19.818Z,2.70
2023-05-08T01:35:58.483Z,3.00
2023-05-08T01:38:41.245Z,3.40
2023-05-08T01:41:17.367Z,2.90
2023-05-08T01:43:53.464Z,3.20
2023-05-08T01:46:28.351Z,2.80
2023-05-08T01:49:09.150Z,3.20
2023-05-08T01:51:47.074Z,2.40
2023-05-08T01:54:25.030Z,3.10
2023-05-08T01:56:58.990Z,3.40
2023-05-08T01:59:31.456Z,3.50
2023-05-08T02:02:04.205Z,3.60
2023-05-08T02:04:37.601Z,3.20
2023-05-08T02:07:09.156Z,2.80
2023-05-08T02:09:41.973Z,2.20
2023-05-08T02:12:13.412Z,2.50
2023-05-08T02:14:46.919Z,3.10
2023-05-08T02:17:18.696Z,4.30
2023-05-08T02:19:50.764Z,2.30
2023-05-08T02:22:24.402Z,2.80
2023-05-08T02:24:57.509Z,4.00
2023-05-08T02:27:30.161Z,3.10
2023-05-08T02:32:33.338Z,2.80
2023-05-08T02:40:09.878Z,3.60
2023-05-08T02:42:41.354Z,2.90
2023-05-08T02:45:15.115Z,3.20
2023-05-08T02:50:21.774Z,1.90
2023-05-08T02:53:00.495Z,2.70
2023-05-08T02:58:18.734Z,3.00
2023-05-08T03:00:56.234Z,2.90
2023-05-08T03:03:32.338Z,3.50
2023-05-08T03:06:10.123Z,3.10
2023-05-08T03:08:41.521Z,3.20
2023-05-08T03:11:16.142Z,2.70
2023-05-08T03:13:49.950Z,3.40
2023-05-08T03:18:58.000Z,3.10
2023-05-08T03:21:32.413Z,2.70
2023-05-08T03:24:07.292Z,2.50
2023-05-08T03:26:39.420Z,2.40
2023-05-08T03:29:10.785Z,2.70
2023-05-08T03:31:42.527Z,2.30
2023-05-08T03:34:15.512Z,2.90
2023-05-08T03:36:46.835Z,3.20
2023-05-08T03:39:18.327Z,3.40
2023-05-08T03:41:49.766Z,3.30
2023-05-08T03:44:21.701Z,3.20
2023-05-08T03:46:55.045Z,2.80
2023-05-08T03:49:27.424Z,3.90
2023-05-08T03:51:58.870Z,4.10
2023-05-08T03:54:30.261Z,3.50
2023-05-08T03:57:01.851Z,4.10
2023-05-08T03:59:45.686Z,2.70
2023-05-08T04:02:30.160Z,3.30
2023-05-08T04:05:11.834Z,1.70
2023-05-08T04:07:49.020Z,2.00
2023-05-08T04:10:26.256Z,2.80
2023-05-08T04:13:05.775Z,3.00
2023-05-08T04:15:40.463Z,2.90
2023-05-08T04:18:15.851Z,2.80
2023-05-08T04:20:50.526Z,2.70
2023-05-08T04:23:23.272Z,2.80
2023-05-08T04:25:56.630Z,3.50
2023-05-08T04:28:28.039Z,3.00
2023-05-08T04:30:59.978Z,3.30
2023-05-08T04:33:31.328Z,3.30
2023-05-08T04:36:03.966Z,2.90
2023-05-08T04:38:38.934Z,2.10
2023-05-08T04:41:10.082Z,2.60
2023-05-08T04:43:40.927Z,3.40
2023-05-08T04:46:11.789Z,3.40
2023-05-08T04:48:43.276Z,3.30
2023-05-08T04:51:13.975Z,2.90
2023-05-08T04:53:47.659Z,3.50
2023-05-08T04:56:19.649Z,3.40
2023-05-08T04:58:51.328Z,3.20
2023-05-08T05:01:22.761Z,2.50
2023-05-08T05:03:54.059Z,2.90
2023-05-08T05:06:24.918Z,3.00
2023-05-08T05:08:55.642Z,2.50
2023-05-08T05:11:26.552Z,2.40
2023-05-08T05:13:57.190Z,2.60
2023-05-08T05:16:28.481Z,2.40
2023-05-08T05:18:59.766Z,2.80
2023-05-08T05:21:30.549Z,2.40
2023-05-08T05:24:01.819Z,2.10
2023-05-08T05:26:32.574Z,2.20
2023-05-08T05:29:03.184Z,2.10
2023-05-08T05:31:33.980Z,1.90
2023-05-08T05:34:04.808Z,2.40
2023-05-08T05:36:35.751Z,2.30
2023-05-08T05:39:06.927Z,2.00
2023-05-08T05:41:38.049Z,1.70
2023-05-08T05:44:09.228Z,1.70
2023-05-08T05:46:42.075Z,1.40
2023-05-08T05:49:14.786Z,1.80
2023-05-08T05:51:45.598Z,2.10
2023-05-08T05:54:16.358Z,1.20
2023-05-08T05:56:47.190Z,1.40
2023-05-08T05:59:18.467Z,1.50
2023-05-08T06:01:49.636Z,1.70
2023-05-08T06:04:22.046Z,1.50
2023-05-08T06:06:52.761Z,1.70
2023-05-08T06:09:23.611Z,2.10
2023-05-08T06:11:55.633Z,2.10
2023-05-08T06:14:26.850Z,1.60
2023-05-08T06:16:57.572Z,1.50
2023-05-08T06:19:28.721Z,1.40
2023-05-08T06:21:59.376Z,1.40
2023-05-08T06:24:30.001Z,1.40
2023-05-08T06:27:00.880Z,1.50
2023-05-08T06:29:31.638Z,1.70
2023-05-08T06:32:02.590Z,1.40
2023-05-08T06:34:33.271Z,1.40
2023-05-08T06:37:03.994Z,1.10
2023-05-08T06:39:34.532Z,1.40
2023-05-08T06:42:08.237Z,1.60
2023-05-08T06:44:42.176Z,1.70
2023-05-08T06:47:12.875Z,1.30
2023-05-08T06:49:43.647Z,1.10
2023-05-08T06:52:14.319Z,1.40
2023-05-08T06:54:45.010Z,1.50
2023-05-08T06:57:16.277Z,1.40
2023-05-08T06:59:47.069Z,1.30
2023-05-08T07:02:17.800Z,1.40
2023-05-08T07:04:48.651Z,2.30
2023-05-08T07:07:19.564Z,1.40
2023-05-08T07:09:50.212Z,1.40
2023-05-08T07:12:20.812Z,1.30
2023-05-08T07:14:51.443Z,1.30
2023-05-08T07:17:22.005Z,1.20
2023-05-08T07:19:54.217Z,1.70
2023-05-08T07:22:24.959Z,0.70
2023-05-08T07:24:55.711Z,1.00
2023-05-08T07:27:26.464Z,1.00
2023-05-08T07:29:57.504Z,0.90
2023-05-08T07:32:28.144Z,1.00
2023-05-08T07:34:58.950Z,0.80
2023-05-08T07:37:29.809Z,1.20
2023-05-08T07:40:00.674Z,1.10
2023-05-08T07:42:31.343Z,0.80
2023-05-08T07:45:03.204Z,1.20
2023-05-08T07:47:33.944Z,0.70
2023-05-08T07:50:05.228Z,0.70
2023-05-08T07:52:35.897Z,1.00
2023-05-08T07:55:08.476Z,0.80
2023-05-08T07:57:43.185Z,0.90
2023-05-08T08:00:16.480Z,0.90
2023-05-08T08:02:47.885Z,0.70
2023-05-08T08:05:18.788Z,0.60
2023-05-08T08:07:49.460Z,0.80
2023-05-08T08:10:20.204Z,0.90
2023-05-08T08:12:50.897Z,0.50
2023-05-08T08:15:22.141Z,0.50
2023-05-08T08:17:52.997Z,0.60
2023-05-08T08:20:23.966Z,0.60
2023-05-08T08:22:54.585Z,1.40
2023-05-08T08:25:25.589Z,0.60
2023-05-08T08:27:56.153Z,0.70
2023-05-08T08:30:27.158Z,0.70
2023-05-08T08:33:02.076Z,0.80
2023-05-08T08:35:33.742Z,0.50
2023-05-08T08:38:04.346Z,0.60
2023-05-08T08:40:39.599Z,0.60
2023-05-08T08:43:10.610Z,0.50
2023-05-08T08:45:41.276Z,0.50
2023-05-08T08:48:14.020Z,0.60
2023-05-08T08:50:49.048Z,0.70
2023-05-08T08:53:27.316Z,0.40
2023-05-08T08:56:02.223Z,0.80
2023-05-08T08:58:39.241Z,0.40
2023-05-08T09:01:15.154Z,0.70
2023-05-08T09:03:47.649Z,1.00
2023-05-08T09:06:20.468Z,0.40
2023-05-08T09:08:52.763Z,0.60
2023-05-08T09:11:23.487Z,0.50
2023-05-08T09:13:55.664Z,0.70
2023-05-08T09:18:56.310Z,0.50
2023-05-08T09:21:28.279Z,0.50
2023-05-08T09:24:00.441Z,0.60
2023-05-08T09:29:13.764Z,0.40
2023-05-08T09:31:46.316Z,0.80
2023-05-08T09:34:28.340Z,0.60
2023-05-08T09:37:13.424Z,0.50
2023-05-08T09:39:45.999Z,2.30
2023-05-08T09:42:16.834Z,0.50
2023-05-08T09:44:49.975Z,0.80
2023-05-08T09:47:22.257Z,0.50
2023-05-08T09:50:03.888Z,0.80
2023-05-08T09:52:37.200Z,1.30
2023-05-08T09:55:10.707Z,3.20
2023-05-08T09:57:52.681Z,6.00
2023-05-08T10:00:25.161Z,2.10
2023-05-08T10:03:01.296Z,3.60
2023-05-08T10:05:34.543Z,1.90
2023-05-08T10:08:22.151Z,1.60
2023-05-08T10:10:53.316Z,1.40
2023-05-08T10:13:24.008Z,1.30
2023-05-08T10:15:57.871Z,1.80
2023-05-08T10:18:35.325Z,2.00
2023-05-08T10:21:08.128Z,1.20
2023-05-08T10:23:41.168Z,1.10
2023-05-08T10:26:15.695Z,1.50
2023-05-08T10:28:57.033Z,0.90
2023-05-08T10:31:32.347Z,1.60
2023-05-08T10:34:05.127Z,1.20
2023-05-08T10:36:36.959Z,1.10
2023-05-08T10:39:08.289Z,1.20
2023-05-08T10:41:40.159Z,0.90
2023-05-08T10:44:11.758Z,1.10
2023-05-08T10:46:50.407Z,1.30
2023-05-08T10:49:26.725Z,1.00
2023-05-08T10:52:07.685Z,1.60
2023-05-08T10:54:53.061Z,1.10
2023-05-08T10:57:23.666Z,1.10
2023-05-08T10:59:54.305Z,0.80
2023-05-08T11:02:32.746Z,1.20
2023-05-08T11:08:01.281Z,1.00
2023-05-08T11:10:37.175Z,0.90
2023-05-08T11:13:09.048Z,0.60
2023-05-08T11:15:42.420Z,0.80
2023-05-08T11:18:17.721Z,0.90
2023-05-08T11:21:00.269Z,0.90
2023-05-08T11:23:31.679Z,0.80
2023-05-08T11:26:04.065Z,0.90
2023-05-08T11:28:38.527Z,0.80
2023-05-08T11:31:10.728Z,0.70
2023-05-08T11:33:41.515Z,0.80
2023-05-08T11:36:20.728Z,0.90
2023-05-08T11:39:12.656Z,0.80
2023-05-08T11:41:43.302Z,0.80
2023-05-08T11:44:20.585Z,1.00
2023-05-08T11:46:56.124Z,0.90
2023-05-08T11:49:29.999Z,0.50
2023-05-08T11:52:06.078Z,0.80
2023-05-08T11:54:37.494Z,0.70
2023-05-08T11:57:08.149Z,0.60
2023-05-08T11:59:43.686Z,0.90
2023-05-08T12:02:14.335Z,0.90
2023-05-08T12:04:49.024Z,0.90
2023-05-08T12:07:20.601Z,0.80
2023-05-08T12:09:51.519Z,0.70
2023-05-08T12:12:22.214Z,0.70
2023-05-08T12:14:53.942Z,0.60
2023-05-08T12:17:24.734Z,0.40
2023-05-08T12:20:03.983Z,0.60
2023-05-08T12:22:34.648Z,0.70
2023-05-08T12:25:08.396Z,0.60
2023-05-08T12:27:40.581Z,0.60
2023-05-08T12:32:43.996Z,0.80
2023-05-08T12:35:15.969Z,0.60
2023-05-08T12:37:48.002Z,0.90
2023-05-08T12:40:32.922Z,0.60
2023-05-08T12:43:05.150Z,0.80
2023-05-08T12:45:39.185Z,0.80
2023-05-08T12:48:11.933Z,1.00
2023-05-08T12:50:45.348Z,0.80
2023-05-08T12:53:17.998Z,0.70
2023-05-08T12:55:55.250Z,0.80
2023-05-08T12:58:28.899Z,1.00
2023-05-08T13:01:12.881Z,1.00
2023-05-08T13:03:44.701Z,0.80
2023-05-08T13:06:23.748Z,0.80
2023-05-08T13:08:57.200Z,0.70
2023-05-08T13:11:34.488Z,0.90
2023-05-08T13:14:05.257Z,1.20
2023-05-08T13:16:45.149Z,0.70
2023-05-08T13:19:16.693Z,0.90
2023-05-08T13:21:48.169Z,0.80
2023-05-08T13:24:18.892Z,1.10
2023-05-08T13:26:49.752Z,0.70
2023-05-08T13:29:22.150Z,1.00
2023-05-08T13:31:52.920Z,0.70
2023-05-08T13:34:25.531Z,0.90
2023-05-08T13:36:56.315Z,0.80
2023-05-08T13:39:26.909Z,1.20
2023-05-08T13:41:57.551Z,1.10
2023-05-08T13:44:28.286Z,0.80
2023-05-08T13:46:59.352Z,1.10
2023-05-08T13:49:29.975Z,0.70
2023-05-08T13:52:01.129Z,0.80
2023-05-08T13:54:32.196Z,0.70
2023-05-08T13:57:03.772Z,0.90
2023-05-08T13:59:34.535Z,0.70
2023-05-08T14:02:05.747Z,0.80
2023-05-08T14:04:36.615Z,0.70
2023-05-08T14:07:07.516Z,0.70
2023-05-08T14:09:38.270Z,0.70
2023-05-08T14:12:10.120Z,0.70
2023-05-08T14:14:40.954Z,0.70
2023-05-08T14:17:11.792Z,1.00
2023-05-08T14:19:42.455Z,0.90
2023-05-08T14:22:13.180Z,1.10
2023-05-08T14:24:44.308Z,0.60
2023-05-08T14:27:15.820Z,1.00
2023-05-08T14:29:46.491Z,0.60
2023-05-08T14:32:17.426Z,1.20
2023-05-08T14:34:48.754Z,0.70
2023-05-08T14:37:19.469Z,0.80
2023-05-08T14:39:52.648Z,0.70
2023-05-08T14:42:23.805Z,0.80
2023-05-08T14:44:55.922Z,0.90
2023-05-08T14:47:27.106Z,0.90
2023-05-08T14:49:58.046Z,0.90
2023-05-08T14:52:29.018Z,1.10
2023-05-08T14:55:00.206Z,0.90
2023-05-08T14:57:31.151Z,0.70
2023-05-08T15:00:01.825Z,1.10
2023-05-08T15:02:32.592Z,0.90
2023-05-08T15:05:08.362Z,0.90
2023-05-08T15:07:42.342Z,0.60
2023-05-08T15:10:14.727Z,0.90
2023-05-08T15:15:15.233Z,0.60
2023-05-08T15:17:46.061Z,0.90
2023-05-08T15:20:16.905Z,0.70
2023-05-08T15:22:47.590Z,0.50
2023-05-08T15:25:18.351Z,0.80
2023-05-08T15:27:52.584Z,1.00
2023-05-08T15:30:24.275Z,0.90
2023-05-08T15:32:54.898Z,0.80
2023-05-08T15:35:25.614Z,1.20
2023-05-08T15:37:56.322Z,0.70
2023-05-08T15:40:27.072Z,1.40
2023-05-08T15:42:58.490Z,0.80
2023-05-08T15:45:29.257Z,1.00
2023-05-08T15:48:00.045Z,1.10
2023-05-08T15:50:30.720Z,1.00
2023-05-08T15:53:01.321Z,0.80
2023-05-08T15:55:32.010Z,1.20
2023-05-08T15:58:02.794Z,1.00
2023-05-08T16:00:41.025Z,0.90
2023-05-08T16:03:15.845Z,1.00
2023-05-08T16:05:46.678Z,0.90
2023-05-08T16:08:18.074Z,1.10
2023-05-08T16:10:49.573Z,1.10
2023-05-08T16:13:20.296Z,1.10
2023-05-08T16:15:51.215Z,0.90
2023-05-08T16:18:24.559Z,0.90
2023-05-08T16:20:55.296Z,0.90
2023-05-08T16:23:26.362Z,1.20
2023-05-08T16:25:57.102Z,1.20
2023-05-08T16:28:27.827Z,1.10
2023-05-08T16:30:58.550Z,0.60
2023-05-08T16:33:29.255Z,1.60
2023-05-08T16:35:59.953Z,0.90
2023-05-08T16:38:30.835Z,1.10
2023-05-08T16:41:06.397Z,0.60
2023-05-08T16:43:37.093Z,1.20
2023-05-08T16:46:09.744Z,0.80
2023-05-08T16:48:41.469Z,1.20
2023-05-08T16:51:12.258Z,1.10
2023-05-08T16:53:43.434Z,1.10
2023-05-08T16:56:14.349Z,1.00
2023-05-08T16:58:45.006Z,0.80
2023-05-08T17:01:16.166Z,1.30
2023-05-08T17:03:47.243Z,1.40
2023-05-08T17:06:18.061Z,1.30
2023-05-08T17:08:48.794Z,1.30
2023-05-08T17:11:19.598Z,1.40
2023-05-08T17:13:50.355Z,1.10
2023-05-08T17:16:21.236Z,1.20
2023-05-08T17:18:51.974Z,1.50
2023-05-08T17:21:22.618Z,1.20
2023-05-08T17:23:53.511Z,1.50
2023-05-08T17:26:24.555Z,1.40
2023-05-08T17:28:55.262Z,1.20
2023-05-08T17:31:26.108Z,1.50
2023-05-08T17:33:56.964Z,1.30
2023-05-08T17:36:27.641Z,1.00
2023-05-08T17:38:58.529Z,1.10
2023-05-08T17:41:29.281Z,1.30
2023-05-08T17:44:00.140Z,1.40
2023-05-08T17:46:31.084Z,1.50
2023-05-08T17:49:02.036Z,1.10
2023-05-08T17:51:32.902Z,1.40
2023-05-08T17:54:03.827Z,1.60
2023-05-08T17:56:34.748Z,1.60
2023-05-08T17:59:05.396Z,1.40
2023-05-08T18:01:36.099Z,1.50
2023-05-08T18:04:07.654Z,1.60
2023-05-08T18:06:38.397Z,1.00
2023-05-08T18:09:09.394Z,1.30
2023-05-08T18:11:41.346Z,1.40
2023-05-08T18:14:12.184Z,1.50
2023-05-08T18:16:42.897Z,1.20
2023-05-08T18:19:14.955Z,3.70
2023-05-08T18:21:45.764Z,1.60
2023-05-08T18:24:16.750Z,1.80
2023-05-08T18:26:50.185Z,2.30
2023-05-08T18:29:22.175Z,1.80
2023-05-08T18:31:53.033Z,1.80
2023-05-08T18:34:23.781Z,2.00
2023-05-08T18:36:56.158Z,2.00
2023-05-08T18:39:28.886Z,2.50
2023-05-08T18:42:00.746Z,1.90
2023-05-08T18:44:31.855Z,1.80
2023-05-08T18:47:05.386Z,1.70
2023-05-08T18:49:36.350Z,1.80
2023-05-08T18:52:07.114Z,1.80
2023-05-08T18:54:38.052Z,1.50
2023-05-08T18:57:09.455Z,1.90
2023-05-08T18:59:40.201Z,1.70
2023-05-08T19:02:11.315Z,1.90
2023-05-08T19:04:42.931Z,2.00
2023-05-08T19:07:13.718Z,2.60
2023-05-08T19:09:44.483Z,2.00
2023-05-08T19:12:15.592Z,2.40
2023-05-08T19:14:46.597Z,2.00
2023-05-08T19:17:17.778Z,2.60
2023-05-08T19:19:48.593Z,1.60
2023-05-08T19:22:19.410Z,2.10
2023-05-08T19:24:50.389Z,2.80
2023-05-08T19:27:24.346Z,3.00
2023-05-08T19:29:55.215Z,2.40
2023-05-08T19:32:26.051Z,2.30
2023-05-08T19:34:57.553Z,2.40
2023-05-08T19:37:29.109Z,2.20
2023-05-08T19:39:59.959Z,2.10
2023-05-08T19:42:31.048Z,2.90
2023-05-08T19:45:02.120Z,1.70
2023-05-08T19:47:33.039Z,1.80
2023-05-08T19:50:03.967Z,2.00
2023-05-08T19:52:34.751Z,2.30
2023-05-08T19:55:06.286Z,2.00
2023-05-08T19:57:36.939Z,2.10
2023-05-08T20:00:10.486Z,2.60
2023-05-08T20:02:41.732Z,1.90
2023-05-08T20:05:22.346Z,2.30
2023-05-08T20:07:54.095Z,1.80
2023-05-08T20:10:25.736Z,1.80
2023-05-08T20:12:56.484Z,1.90
2023-05-08T20:15:27.468Z,2.00
2023-05-08T20:17:59.218Z,2.10
2023-05-08T20:20:32.017Z,2.10
2023-05-08T20:23:03.056Z,2.40
2023-05-08T20:25:33.824Z,2.00
2023-05-08T20:28:04.505Z,2.50
2023-05-08T20:30:35.284Z,2.10
2023-05-08T20:33:06.614Z,3.10
2023-05-08T20:35:37.368Z,3.40
2023-05-08T20:38:08.258Z,3.00
2023-05-08T20:40:39.014Z,2.60
2023-05-08T20:43:11.011Z,2.70
2023-05-08T20:45:41.841Z,2.40
2023-05-08T20:48:12.493Z,2.70
2023-05-08T20:50:43.078Z,2.60
2023-05-08T20:53:13.648Z,2.20
2023-05-08T20:55:44.449Z,2.30
2023-05-08T20:58:15.163Z,1.60
2023-05-08T21:00:45.835Z,2.30
2023-05-08T21:03:16.522Z,2.50
2023-05-08T21:05:47.272Z,2.00
2023-05-08T21:08:17.914Z,2.10
2023-05-08T21:10:48.674Z,2.20
2023-05-08T21:13:19.467Z,2.30
2023-05-08T21:15:52.398Z,2.10
2023-05-08T21:18:23.292Z,2.50
2023-05-08T21:20:54.013Z,1.90
2023-05-08T21:23:24.883Z,2.50
2023-05-08T21:25:55.716Z,2.00
2023-05-08T21:28:26.505Z,2.30
2023-05-08T21:30:57.193Z,2.00
2023-05-08T21:33:27.812Z,2.40
2023-05-08T21:36:00.110Z,2.40
2023-05-08T21:38:31.056Z,1.70
2023-05-08T21:41:08.391Z,2.10
2023-05-08T21:43:39.858Z,1.90
2023-05-08T21:46:10.515Z,2.40
2023-05-08T21:48:41.422Z,2.10
2023-05-08T21:51:12.074Z,1.90
2023-05-08T21:53:42.751Z,1.90
2023-05-08T21:56:13.652Z,1.70
2023-05-08T21:58:44.611Z,2.10
2023-05-08T22:01:15.336Z,1.90
2023-05-08T22:03:46.202Z,2.10
2023-05-08T22:06:17.049Z,2.30
2023-05-08T22:08:47.958Z,2.40
2023-05-08T22:11:18.716Z,2.50
2023-05-08T22:13:49.334Z,1.80
2023-05-08T22:16:19.950Z,2.00
2023-05-08T22:18:50.717Z,2.00
2023-05-08T22:21:21.594Z,1.70
2023-05-08T22:23:52.191Z,2.00
2023-05-08T22:26:23.853Z,1.90
2023-05-08T22:28:54.499Z,1.50
2023-05-08T22:31:25.300Z,1.70
2023-05-08T22:33:56.004Z,1.70
2023-05-08T22:36:27.986Z,1.90
2023-05-08T22:38:58.643Z,1.90
2023-05-08T22:41:30.496Z,1.30
2023-05-08T22:44:01.523Z,1.50
2023-05-08T22:46:33.216Z,2.10
2023-05-08T22:49:04.264Z,2.30
2023-05-08T22:51:36.159Z,1.90
2023-05-08T22:54:07.468Z,1.50
2023-05-08T22:56:38.229Z,2.20
2023-05-08T22:59:09.233Z,2.60
2023-05-08T23:01:40.150Z,1.70
2023-05-08T23:04:10.852Z,2.10
2023-05-08T23:06:41.598Z,1.90
2023-05-08T23:09:12.345Z,2.20
2023-05-08T23:11:43.160Z,1.70
2023-05-08T23:14:13.804Z,1.90
2023-05-08T23:16:44.576Z,1.40
2023-05-08T23:19:15.313Z,1.60
2023-05-08T23:21:46.176Z,1.60
2023-05-08T23:24:17.596Z,2.10
2023-05-08T23:26:49.822Z,1.80
2023-05-08T23:29:20.506Z,2.10
2023-05-08T23:31:51.407Z,1.90
2023-05-08T23:34:22.137Z,1.70
2023-05-08T23:36:52.902Z,1.60
2023-05-08T23:39:23.598Z,1.60
2023-05-08T23:41:54.556Z,1.70
2023-05-08T23:44:25.274Z,1.60
2023-05-08T23:46:56.083Z,1.50
2023-05-08T23:49:26.914Z,1.60
2023-05-08T23:51:57.507Z,2.20
2023-05-08T23:54:28.359Z,1.40
2023-05-08T23:56:59.074Z,1.60
2023-05-08T23:59:29.756Z,1.70
